Terminal Aerodrome Forecast
Issued by NWS Hastings, NE

Home | Current Version | Previous Version | Text Only | Print | Product List | Glossary On
Versions: 1 2 3 4 5 6 7 8 9 10 11 12 13 14
000
FTUS45 KGID 230520
TAFEAR
TAF
KEAR 230520Z 2306/2406 16008KT P6SM -RA VCTS BKN050CB
     FM230900 16010KT P6SM -RA BKN035
     FM231500 16014G20KT P6SM BKN040
     FM240100 16012KT P6SM BKN080
      AMD LTD TO CLD VIS AND WIND=

USA.gov is the U.S. government's official web portal to all federal, state and local government web resources and services.